sensor_id;sensor_type;location;lat;lon;timestamp;temperature;humidity
29501;DHT22;16450;50.288;10.966;2023-05-02T00:00:19;7.80;99.10
29501;DHT22;16450;50.288;10.966;2023-05-02T00:03:21;7.70;99.00
29501;DHT22;16450;50.288;10.966;2023-05-02T00:06:23;7.70;98.90
29501;DHT22;16450;50.288;10.966;2023-05-02T00:09:25;7.60;98.80
29501;DHT22;16450;50.288;10.966;2023-05-02T00:12:27;7.60;98.90
29501;DHT22;16450;50.288;10.966;2023-05-02T00:15:29;7.50;98.90
29501;DHT22;16450;50.288;10.966;2023-05-02T00:18:31;7.50;98.90
29501;DHT22;16450;50.288;10.966;2023-05-02T00:21:33;7.40;99.00
29501;DHT22;16450;50.288;10.966;2023-05-02T00:24:35;7.40;99.10
29501;DHT22;16450;50.288;10.966;2023-05-02T00:27:37;7.40;99.30
29501;DHT22;16450;50.288;10.966;2023-05-02T00:30:43;7.30;99.50
29501;DHT22;16450;50.288;10.966;2023-05-02T00:33:45;7.30;99.50
29501;DHT22;16450;50.288;10.966;2023-05-02T00:36:47;7.30;99.60
29501;DHT22;16450;50.288;10.966;2023-05-02T00:39:49;7.30;99.60
29501;DHT22;16450;50.288;10.966;2023-05-02T00:42:51;7.30;99.60
29501;DHT22;16450;50.288;10.966;2023-05-02T00:45:54;7.20;99.60
29501;DHT22;16450;50.288;10.966;2023-05-02T00:48:56;7.20;99.60
29501;DHT22;16450;50.288;10.966;2023-05-02T00:51:58;7.20;99.70
29501;DHT22;16450;50.288;10.966;2023-05-02T00:55:00;7.20;99.80
29501;DHT22;16450;50.288;10.966;2023-05-02T00:58:04;7.10;99.80
29501;DHT22;16450;50.288;10.966;2023-05-02T01:11:43;7.10;99.50
29501;DHT22;16450;50.288;10.966;2023-05-02T01:14:53;7.10;99.50
29501;DHT22;16450;50.288;10.966;2023-05-02T01:17:56;7.00;99.70
29501;DHT22;16450;50.288;10.966;2023-05-02T01:21:05;7.00;99.90
29501;DHT22;16450;50.288;10.966;2023-05-02T01:24:36;7.00;99.90
29501;DHT22;16450;50.288;10.966;2023-05-02T01:31:07;6.90;99.80
29501;DHT22;16450;50.288;10.966;2023-05-02T01:34:10;6.90;99.90
29501;DHT22;16450;50.288;10.966;2023-05-02T01:37:13;6.90;99.90
29501;DHT22;16450;50.288;10.966;2023-05-02T01:40:18;6.80;99.80
29501;DHT22;16450;50.288;10.966;2023-05-02T01:43:21;6.80;99.90
29501;DHT22;16450;50.288;10.966;2023-05-02T01:46:34;6.80;99.90
29501;DHT22;16450;50.288;10.966;2023-05-02T01:49:38;6.80;99.80
29501;DHT22;16450;50.288;10.966;2023-05-02T01:52:43;6.70;99.90
29501;DHT22;16450;50.288;10.966;2023-05-02T01:55:46;6.70;99.90
29501;DHT22;16450;50.288;10.966;2023-05-02T01:58:51;6.70;99.90
29501;DHT22;16450;50.288;10.966;2023-05-02T02:01:55;6.70;99.90
29501;DHT22;16450;50.288;10.966;2023-05-02T02:04:58;6.70;99.90
29501;DHT22;16450;50.288;10.966;2023-05-02T02:08:00;6.70;99.90
29501;DHT22;16450;50.288;10.966;2023-05-02T02:11:07;6.70;99.90
29501;DHT22;16450;50.288;10.966;2023-05-02T02:14:18;6.70;99.90
29501;DHT22;16450;50.288;10.966;2023-05-02T02:17:24;6.60;99.90
29501;DHT22;16450;50.288;10.966;2023-05-02T02:20:28;6.60;99.90
29501;DHT22;16450;50.288;10.966;2023-05-02T02:23:32;6.60;99.90
29501;DHT22;16450;50.288;10.966;2023-05-02T02:26:35;6.50;99.90
29501;DHT22;16450;50.288;10.966;2023-05-02T02:29:38;6.50;99.90
29501;DHT22;16450;50.288;10.966;2023-05-02T02:32:39;6.50;99.90
29501;DHT22;16450;50.288;10.966;2023-05-02T02:35:45;6.50;99.90
29501;DHT22;16450;50.288;10.966;2023-05-02T02:39:17;6.50;99.90
29501;DHT22;16450;50.288;10.966;2023-05-02T02:42:28;6.50;99.90
29501;DHT22;16450;50.288;10.966;2023-05-02T02:45:34;6.50;99.90
29501;DHT22;16450;50.288;10.966;2023-05-02T02:48:49;6.50;99.90
29501;DHT22;16450;50.288;10.966;2023-05-02T02:52:01;6.50;99.90
29501;DHT22;16450;50.288;10.966;2023-05-02T02:55:19;6.40;99.90
29501;DHT22;16450;50.288;10.966;2023-05-02T02:58:57;6.40;99.90
29501;DHT22;16450;50.288;10.966;2023-05-02T03:02:05;6.40;99.90
29501;DHT22;16450;50.288;10.966;2023-05-02T03:05:10;6.30;99.90
29501;DHT22;16450;50.288;10.966;2023-05-02T03:08:12;6.30;99.90
29501;DHT22;16450;50.288;10.966;2023-05-02T03:11:14;6.30;99.90
29501;DHT22;16450;50.288;10.966;2023-05-02T03:14:16;6.20;99.90
29501;DHT22;16450;50.288;10.966;2023-05-02T03:17:18;6.30;99.90
29501;DHT22;16450;50.288;10.966;2023-05-02T03:20:20;6.30;99.90
29501;DHT22;16450;50.288;10.966;2023-05-02T03:23:22;6.30;99.90
29501;DHT22;16450;50.288;10.966;2023-05-02T03:26:25;6.30;99.90
29501;DHT22;16450;50.288;10.966;2023-05-02T03:29:27;6.30;99.90
29501;DHT22;16450;50.288;10.966;2023-05-02T03:32:29;6.30;99.90
29501;DHT22;16450;50.288;10.966;2023-05-02T03:35:31;6.30;99.90
29501;DHT22;16450;50.288;10.966;2023-05-02T03:38:33;6.40;99.90
29501;DHT22;16450;50.288;10.966;2023-05-02T03:41:35;6.40;99.90
29501;DHT22;16450;50.288;10.966;2023-05-02T03:44:37;6.20;99.90
29501;DHT22;16450;50.288;10.966;2023-05-02T03:47:39;6.40;99.90
29501;DHT22;16450;50.288;10.966;2023-05-02T03:50:41;6.40;99.90
29501;DHT22;16450;50.288;10.966;2023-05-02T03:53:44;6.40;99.90
29501;DHT22;16450;50.288;10.966;2023-05-02T03:56:46;6.40;99.90
29501;DHT22;16450;50.288;10.966;2023-05-02T03:59:48;6.40;99.90
29501;DHT22;16450;50.288;10.966;2023-05-02T04:02:50;6.40;99.90
29501;DHT22;16450;50.288;10.966;2023-05-02T04:05:52;6.40;99.90
29501;DHT22;16450;50.288;10.966;2023-05-02T04:08:54;6.40;99.90
29501;DHT22;16450;50.288;10.966;2023-05-02T04:11:56;6.40;99.90
29501;DHT22;16450;50.288;10.966;2023-05-02T04:14:58;6.40;99.90
29501;DHT22;16450;50.288;10.966;2023-05-02T04:18:00;6.40;99.90
29501;DHT22;16450;50.288;10.966;2023-05-02T04:21:02;6.40;99.90
29501;DHT22;16450;50.288;10.966;2023-05-02T04:24:05;6.50;99.90
29501;DHT22;16450;50.288;10.966;2023-05-02T04:27:07;6.50;99.90
29501;DHT22;16450;50.288;10.966;2023-05-02T04:30:09;6.50;99.90
29501;DHT22;16450;50.288;10.966;2023-05-02T04:33:11;6.50;99.90
29501;DHT22;16450;50.288;10.966;2023-05-02T04:36:13;6.50;99.90
29501;DHT22;16450;50.288;10.966;2023-05-02T04:39:15;6.60;99.90
29501;DHT22;16450;50.288;10.966;2023-05-02T04:42:17;6.60;99.90
29501;DHT22;16450;50.288;10.966;2023-05-02T04:45:18;6.60;99.90
29501;DHT22;16450;50.288;10.966;2023-05-02T04:48:20;6.60;99.90
29501;DHT22;16450;50.288;10.966;2023-05-02T04:51:22;6.70;99.90
29501;DHT22;16450;50.288;10.966;2023-05-02T04:54:24;6.70;99.90
29501;DHT22;16450;50.288;10.966;2023-05-02T04:57:26;6.70;99.90
29501;DHT22;16450;50.288;10.966;2023-05-02T05:00:28;6.80;99.90
29501;DHT22;16450;50.288;10.966;2023-05-02T05:03:30;6.80;99.90
29501;DHT22;16450;50.288;10.966;2023-05-02T05:06:33;6.90;99.90
29501;DHT22;16450;50.288;10.966;2023-05-02T05:09:35;6.90;99.90
29501;DHT22;16450;50.288;10.966;2023-05-02T05:12:37;7.00;99.90
29501;DHT22;16450;50.288;10.966;2023-05-02T05:15:39;7.00;99.90
29501;DHT22;16450;50.288;10.966;2023-05-02T05:18:41;7.10;99.90
29501;DHT22;16450;50.288;10.966;2023-05-02T05:21:43;7.20;99.90
29501;DHT22;16450;50.288;10.966;2023-05-02T05:24:55;7.20;99.90
29501;DHT22;16450;50.288;10.966;2023-05-02T05:27:58;7.30;99.90
29501;DHT22;16450;50.288;10.966;2023-05-02T05:31:08;7.40;99.90
29501;DHT22;16450;50.288;10.966;2023-05-02T05:34:10;7.50;99.90
29501;DHT22;16450;50.288;10.966;2023-05-02T05:37:13;7.60;99.90
29501;DHT22;16450;50.288;10.966;2023-05-02T05:40:15;7.60;99.90
29501;DHT22;16450;50.288;10.966;2023-05-02T05:43:17;7.70;99.90
29501;DHT22;16450;50.288;10.966;2023-05-02T05:46:19;7.70;99.90
29501;DHT22;16450;50.288;10.966;2023-05-02T05:49:23;7.70;99.90
29501;DHT22;16450;50.288;10.966;2023-05-02T05:52:25;7.90;99.90
29501;DHT22;16450;50.288;10.966;2023-05-02T05:55:27;7.80;99.90
29501;DHT22;16450;50.288;10.966;2023-05-02T05:58:29;7.80;99.90
29501;DHT22;16450;50.288;10.966;2023-05-02T06:01:31;7.70;99.90
29501;DHT22;16450;50.288;10.966;2023-05-02T06:04:33;7.70;99.90
29501;DHT22;16450;50.288;10.966;2023-05-02T06:07:35;7.70;99.90
29501;DHT22;16450;50.288;10.966;2023-05-02T06:10:36;7.70;99.90
29501;DHT22;16450;50.288;10.966;2023-05-02T06:13:38;7.70;99.90
29501;DHT22;16450;50.288;10.966;2023-05-02T06:16:40;7.70;99.90
29501;DHT22;16450;50.288;10.966;2023-05-02T06:19:42;7.70;99.90
29501;DHT22;16450;50.288;10.966;2023-05-02T06:22:44;7.70;99.90
29501;DHT22;16450;50.288;10.966;2023-05-02T06:25:46;7.70;99.90
29501;DHT22;16450;50.288;10.966;2023-05-02T06:28:48;7.70;99.90
29501;DHT22;16450;50.288;10.966;2023-05-02T06:31:54;7.70;99.90
29501;DHT22;16450;50.288;10.966;2023-05-02T06:34:57;7.70;99.90
29501;DHT22;16450;50.288;10.966;2023-05-02T06:37:59;7.80;99.90
29501;DHT22;16450;50.288;10.966;2023-05-02T06:41:00;7.80;99.90
29501;DHT22;16450;50.288;10.966;2023-05-02T06:44:02;7.90;99.90
29501;DHT22;16450;50.288;10.966;2023-05-02T06:47:04;7.90;99.90
29501;DHT22;16450;50.288;10.966;2023-05-02T06:50:08;7.90;99.90
29501;DHT22;16450;50.288;10.966;2023-05-02T06:53:10;8.00;99.90
29501;DHT22;16450;50.288;10.966;2023-05-02T06:56:12;8.00;99.90
29501;DHT22;16450;50.288;10.966;2023-05-02T06:59:14;8.10;99.90
29501;DHT22;16450;50.288;10.966;2023-05-02T07:02:17;8.10;99.90
29501;DHT22;16450;50.288;10.966;2023-05-02T07:05:20;8.10;99.90
29501;DHT22;16450;50.288;10.966;2023-05-02T07:08:22;8.20;99.90
29501;DHT22;16450;50.288;10.966;2023-05-02T07:11:24;8.30;99.90
29501;DHT22;16450;50.288;10.966;2023-05-02T07:14:28;8.40;99.90
29501;DHT22;16450;50.288;10.966;2023-05-02T07:17:30;8.40;99.90
29501;DHT22;16450;50.288;10.966;2023-05-02T07:20:32;8.50;99.90
29501;DHT22;16450;50.288;10.966;2023-05-02T07:23:34;8.70;99.90
29501;DHT22;16450;50.288;10.966;2023-05-02T07:26:36;8.80;99.90
29501;DHT22;16450;50.288;10.966;2023-05-02T07:29:39;9.10;99.90
29501;DHT22;16450;50.288;10.966;2023-05-02T07:32:40;9.30;99.90
29501;DHT22;16450;50.288;10.966;2023-05-02T07:35:42;9.60;99.90
29501;DHT22;16450;50.288;10.966;2023-05-02T07:38:44;9.90;99.90
29501;DHT22;16450;50.288;10.966;2023-05-02T07:41:46;10.20;99.90
29501;DHT22;16450;50.288;10.966;2023-05-02T07:44:48;10.50;99.90
29501;DHT22;16450;50.288;10.966;2023-05-02T07:47:50;11.10;99.90
29501;DHT22;16450;50.288;10.966;2023-05-02T07:50:52;11.50;99.90
29501;DHT22;16450;50.288;10.966;2023-05-02T07:53:54;12.10;99.90
29501;DHT22;16450;50.288;10.966;2023-05-02T07:56:58;12.40;99.90
29501;DHT22;16450;50.288;10.966;2023-05-02T08:00:04;12.80;99.90
29501;DHT22;16450;50.288;10.966;2023-05-02T08:03:10;13.20;99.90
29501;DHT22;16450;50.288;10.966;2023-05-02T08:06:13;13.60;99.90
29501;DHT22;16450;50.288;10.966;2023-05-02T08:09:15;14.00;99.90
29501;DHT22;16450;50.288;10.966;2023-05-02T08:12:17;14.30;99.90
29501;DHT22;16450;50.288;10.966;2023-05-02T08:15:19;14.80;99.90
29501;DHT22;16450;50.288;10.966;2023-05-02T08:18:21;15.20;99.90
29501;DHT22;16450;50.288;10.966;2023-05-02T08:21:23;15.60;99.90
29501;DHT22;16450;50.288;10.966;2023-05-02T08:24:25;16.00;99.90
29501;DHT22;16450;50.288;10.966;2023-05-02T08:27:26;16.40;99.90
29501;DHT22;16450;50.288;10.966;2023-05-02T08:30:28;16.60;99.90
29501;DHT22;16450;50.288;10.966;2023-05-02T08:33:30;17.00;99.90
29501;DHT22;16450;50.288;10.966;2023-05-02T08:36:32;17.30;99.90
29501;DHT22;16450;50.288;10.966;2023-05-02T08:39:34;17.50;99.90
29501;DHT22;16450;50.288;10.966;2023-05-02T08:42:36;17.70;99.90
29501;DHT22;16450;50.288;10.966;2023-05-02T08:45:43;17.90;99.90
29501;DHT22;16450;50.288;10.966;2023-05-02T08:48:45;18.10;99.90
29501;DHT22;16450;50.288;10.966;2023-05-02T08:51:50;18.30;99.90
29501;DHT22;16450;50.288;10.966;2023-05-02T08:54:53;18.40;99.90
29501;DHT22;16450;50.288;10.966;2023-05-02T08:57:57;18.60;99.90
29501;DHT22;16450;50.288;10.966;2023-05-02T09:01:08;18.70;99.90
29501;DHT22;16450;50.288;10.966;2023-05-02T09:04:10;18.80;99.30
29501;DHT22;16450;50.288;10.966;2023-05-02T09:07:12;19.00;99.90
29501;DHT22;16450;50.288;10.966;2023-05-02T09:10:14;19.20;99.90
29501;DHT22;16450;50.288;10.966;2023-05-02T09:16:38;19.50;97.10
29501;DHT22;16450;50.288;10.966;2023-05-02T09:19:41;19.60;98.50
29501;DHT22;16450;50.288;10.966;2023-05-02T09:22:50;19.70;99.80
29501;DHT22;16450;50.288;10.966;2023-05-02T09:25:53;19.70;96.10
29501;DHT22;16450;50.288;10.966;2023-05-02T09:28:55;19.70;97.40
29501;DHT22;16450;50.288;10.966;2023-05-02T09:31:57;19.40;96.70
29501;DHT22;16450;50.288;10.966;2023-05-02T09:35:06;19.10;96.50
29501;DHT22;16450;50.288;10.966;2023-05-02T09:38:18;18.80;95.50
29501;DHT22;16450;50.288;10.966;2023-05-02T09:41:21;18.50;95.80
29501;DHT22;16450;50.288;10.966;2023-05-02T09:44:24;18.30;98.60
29501;DHT22;16450;50.288;10.966;2023-05-02T09:47:26;18.30;98.40
29501;DHT22;16450;50.288;10.966;2023-05-02T09:50:35;18.10;98.60
29501;DHT22;16450;50.288;10.966;2023-05-02T09:53:42;18.10;97.70
29501;DHT22;16450;50.288;10.966;2023-05-02T09:59:56;18.00;97.60
29501;DHT22;16450;50.288;10.966;2023-05-02T10:02:58;18.00;98.60
29501;DHT22;16450;50.288;10.966;2023-05-02T10:06:00;17.90;98.70
29501;DHT22;16450;50.288;10.966;2023-05-02T10:09:03;17.80;99.10
29501;DHT22;16450;50.288;10.966;2023-05-02T10:12:05;17.70;98.90
29501;DHT22;16450;50.288;10.966;2023-05-02T10:15:10;17.70;99.00
29501;DHT22;16450;50.288;10.966;2023-05-02T10:18:16;17.60;98.30
29501;DHT22;16450;50.288;10.966;2023-05-02T10:21:25;17.50;98.00
29501;DHT22;16450;50.288;10.966;2023-05-02T10:24:33;17.30;97.20
29501;DHT22;16450;50.288;10.966;2023-05-02T10:27:36;17.10;97.00
29501;DHT22;16450;50.288;10.966;2023-05-02T10:30:38;16.90;98.00
29501;DHT22;16450;50.288;10.966;2023-05-02T10:33:41;16.70;98.10
29501;DHT22;16450;50.288;10.966;2023-05-02T10:36:45;16.50;98.50
29501;DHT22;16450;50.288;10.966;2023-05-02T10:39:47;16.30;98.60
29501;DHT22;16450;50.288;10.966;2023-05-02T10:42:49;16.10;99.00
29501;DHT22;16450;50.288;10.966;2023-05-02T10:45:53;15.80;99.30
29501;DHT22;16450;50.288;10.966;2023-05-02T10:55:35;15.30;99.70
29501;DHT22;16450;50.288;10.966;2023-05-02T10:58:38;15.20;99.90
29501;DHT22;16450;50.288;10.966;2023-05-02T11:01:42;15.20;99.90
29501;DHT22;16450;50.288;10.966;2023-05-02T11:11:40;15.20;99.90
29501;DHT22;16450;50.288;10.966;2023-05-02T11:14:45;15.30;99.90
29501;DHT22;16450;50.288;10.966;2023-05-02T11:21:24;15.60;99.90
29501;DHT22;16450;50.288;10.966;2023-05-02T11:24:40;15.80;99.90
29501;DHT22;16450;50.288;10.966;2023-05-02T11:27:42;16.00;99.90
29501;DHT22;16450;50.288;10.966;2023-05-02T11:30:46;16.20;99.90
29501;DHT22;16450;50.288;10.966;2023-05-02T11:34:01;16.30;99.90
29501;DHT22;16450;50.288;10.966;2023-05-02T11:37:13;16.20;99.90
29501;DHT22;16450;50.288;10.966;2023-05-02T11:40:16;16.10;99.90
29501;DHT22;16450;50.288;10.966;2023-05-02T11:43:19;16.00;99.90
29501;DHT22;16450;50.288;10.966;2023-05-02T11:46:22;15.80;99.90
29501;DHT22;16450;50.288;10.966;2023-05-02T11:49:24;15.60;99.90
29501;DHT22;16450;50.288;10.966;2023-05-02T11:52:26;15.50;99.90
29501;DHT22;16450;50.288;10.966;2023-05-02T11:55:28;15.40;99.90
29501;DHT22;16450;50.288;10.966;2023-05-02T11:58:31;15.30;99.90
29501;DHT22;16450;50.288;10.966;2023-05-02T12:01:34;15.30;99.90
29501;DHT22;16450;50.288;10.966;2023-05-02T12:04:43;15.30;99.90
29501;DHT22;16450;50.288;10.966;2023-05-02T12:07:46;15.40;99.90
29501;DHT22;16450;50.288;10.966;2023-05-02T12:10:53;15.50;99.90
29501;DHT22;16450;50.288;10.966;2023-05-02T12:13:56;15.60;99.90
29501;DHT22;16450;50.288;10.966;2023-05-02T12:16:58;15.90;99.90
29501;DHT22;16450;50.288;10.966;2023-05-02T12:20:06;16.10;99.90
29501;DHT22;16450;50.288;10.966;2023-05-02T12:23:08;16.30;99.90
29501;DHT22;16450;50.288;10.966;2023-05-02T12:26:24;16.30;99.90
29501;DHT22;16450;50.288;10.966;2023-05-02T12:29:37;16.30;99.90
29501;DHT22;16450;50.288;10.966;2023-05-02T12:32:39;16.30;99.90
29501;DHT22;16450;50.288;10.966;2023-05-02T12:35:45;16.20;99.90
29501;DHT22;16450;50.288;10.966;2023-05-02T12:38:52;16.10;99.90
29501;DHT22;16450;50.288;10.966;2023-05-02T12:41:55;16.10;99.90
29501;DHT22;16450;50.288;10.966;2023-05-02T12:44:58;16.10;99.90
29501;DHT22;16450;50.288;10.966;2023-05-02T12:48:00;16.10;99.90
29501;DHT22;16450;50.288;10.966;2023-05-02T12:51:03;16.20;99.90
29501;DHT22;16450;50.288;10.966;2023-05-02T12:54:05;16.40;99.90
29501;DHT22;16450;50.288;10.966;2023-05-02T12:57:09;16.60;99.90
29501;DHT22;16450;50.288;10.966;2023-05-02T13:00:12;16.70;99.90
29501;DHT22;16450;50.288;10.966;2023-05-02T13:03:14;16.90;99.90
29501;DHT22;16450;50.288;10.966;2023-05-02T13:06:16;17.00;99.90
29501;DHT22;16450;50.288;10.966;2023-05-02T13:09:19;17.20;99.90
29501;DHT22;16450;50.288;10.966;2023-05-02T13:12:21;17.30;99.90
29501;DHT22;16450;50.288;10.966;2023-05-02T13:15:23;17.50;99.90
29501;DHT22;16450;50.288;10.966;2023-05-02T13:18:25;17.50;99.90
29501;DHT22;16450;50.288;10.966;2023-05-02T13:21:28;17.50;99.90
29501;DHT22;16450;50.288;10.966;2023-05-02T13:24:30;17.40;99.90
29501;DHT22;16450;50.288;10.966;2023-05-02T13:27:32;17.40;99.90
29501;DHT22;16450;50.288;10.966;2023-05-02T13:30:37;17.30;99.90
29501;DHT22;16450;50.288;10.966;2023-05-02T13:33:39;17.30;99.90
29501;DHT22;16450;50.288;10.966;2023-05-02T13:36:41;17.20;99.90
29501;DHT22;16450;50.288;10.966;2023-05-02T13:39:47;17.30;99.90
29501;DHT22;16450;50.288;10.966;2023-05-02T13:42:49;17.30;99.90
29501;DHT22;16450;50.288;10.966;2023-05-02T13:45:50;17.20;99.90
29501;DHT22;16450;50.288;10.966;2023-05-02T13:48:53;17.30;99.90
29501;DHT22;16450;50.288;10.966;2023-05-02T13:51:55;17.30;99.90
29501;DHT22;16450;50.288;10.966;2023-05-02T13:54:57;17.30;99.90
29501;DHT22;16450;50.288;10.966;2023-05-02T13:57:59;17.40;99.90
29501;DHT22;16450;50.288;10.966;2023-05-02T14:01:02;17.40;99.90
29501;DHT22;16450;50.288;10.966;2023-05-02T14:04:05;17.30;99.90
29501;DHT22;16450;50.288;10.966;2023-05-02T14:07:09;17.30;99.90
29501;DHT22;16450;50.288;10.966;2023-05-02T14:10:12;17.20;99.90
29501;DHT22;16450;50.288;10.966;2023-05-02T14:13:13;17.20;99.90
29501;DHT22;16450;50.288;10.966;2023-05-02T14:16:15;17.10;99.90
29501;DHT22;16450;50.288;10.966;2023-05-02T14:19:17;17.10;99.80
29501;DHT22;16450;50.288;10.966;2023-05-02T14:22:19;17.00;99.40
29501;DHT22;16450;50.288;10.966;2023-05-02T14:25:21;16.80;99.20
29501;DHT22;16450;50.288;10.966;2023-05-02T14:28:23;16.60;99.00
29501;DHT22;16450;50.288;10.966;2023-05-02T14:31:25;16.60;99.30
29501;DHT22;16450;50.288;10.966;2023-05-02T14:34:27;16.50;99.30
29501;DHT22;16450;50.288;10.966;2023-05-02T14:37:28;16.40;99.40
29501;DHT22;16450;50.288;10.966;2023-05-02T14:40:30;16.30;99.40
29501;DHT22;16450;50.288;10.966;2023-05-02T14:43:32;16.30;99.30
29501;DHT22;16450;50.288;10.966;2023-05-02T14:46:34;16.20;99.10
29501;DHT22;16450;50.288;10.966;2023-05-02T14:49:36;16.10;99.20
29501;DHT22;16450;50.288;10.966;2023-05-02T14:52:38;16.10;99.10
29501;DHT22;16450;50.288;10.966;2023-05-02T14:55:40;16.00;99.10
29501;DHT22;16450;50.288;10.966;2023-05-02T14:58:42;15.90;99.20
29501;DHT22;16450;50.288;10.966;2023-05-02T15:01:44;15.90;99.50
29501;DHT22;16450;50.288;10.966;2023-05-02T15:04:46;15.80;99.80
29501;DHT22;16450;50.288;10.966;2023-05-02T15:07:48;15.80;99.90
29501;DHT22;16450;50.288;10.966;2023-05-02T15:10:50;15.80;99.90
29501;DHT22;16450;50.288;10.966;2023-05-02T15:13:52;15.90;99.90
29501;DHT22;16450;50.288;10.966;2023-05-02T15:16:54;16.00;99.90
29501;DHT22;16450;50.288;10.966;2023-05-02T15:19:56;16.00;99.90
29501;DHT22;16450;50.288;10.966;2023-05-02T15:22:59;16.10;99.90
29501;DHT22;16450;50.288;10.966;2023-05-02T15:26:04;16.20;99.90
29501;DHT22;16450;50.288;10.966;2023-05-02T15:29:06;16.30;99.60
29501;DHT22;16450;50.288;10.966;2023-05-02T15:32:08;16.30;99.60
29501;DHT22;16450;50.288;10.966;2023-05-02T15:35:10;16.40;99.60
29501;DHT22;16450;50.288;10.966;2023-05-02T15:38:12;16.50;99.90
29501;DHT22;16450;50.288;10.966;2023-05-02T15:41:14;16.60;99.70
29501;DHT22;16450;50.288;10.966;2023-05-02T15:44:16;16.70;99.20
29501;DHT22;16450;50.288;10.966;2023-05-02T15:47:18;16.70;99.00
29501;DHT22;16450;50.288;10.966;2023-05-02T15:50:22;16.70;98.30
29501;DHT22;16450;50.288;10.966;2023-05-02T15:53:25;16.60;98.20
29501;DHT22;16450;50.288;10.966;2023-05-02T15:56:28;16.60;98.10
29501;DHT22;16450;50.288;10.966;2023-05-02T15:59:31;16.60;98.00
29501;DHT22;16450;50.288;10.966;2023-05-02T16:02:32;16.50;97.80
29501;DHT22;16450;50.288;10.966;2023-05-02T16:05:35;16.50;97.70
29501;DHT22;16450;50.288;10.966;2023-05-02T16:08:37;16.50;97.70
29501;DHT22;16450;50.288;10.966;2023-05-02T16:11:39;16.40;97.60
29501;DHT22;16450;50.288;10.966;2023-05-02T16:14:41;16.40;97.50
29501;DHT22;16450;50.288;10.966;2023-05-02T16:17:44;16.30;97.40
29501;DHT22;16450;50.288;10.966;2023-05-02T16:20:46;16.20;97.00
29501;DHT22;16450;50.288;10.966;2023-05-02T16:23:50;16.10;97.00
29501;DHT22;16450;50.288;10.966;2023-05-02T16:26:52;16.10;97.00
29501;DHT22;16450;50.288;10.966;2023-05-02T16:29:54;15.90;97.00
29501;DHT22;16450;50.288;10.966;2023-05-02T16:32:56;15.90;96.80
29501;DHT22;16450;50.288;10.966;2023-05-02T16:36:02;15.80;96.60
29501;DHT22;16450;50.288;10.966;2023-05-02T16:39:04;15.70;95.60
29501;DHT22;16450;50.288;10.966;2023-05-02T16:42:06;15.60;96.40
29501;DHT22;16450;50.288;10.966;2023-05-02T16:45:08;15.50;96.40
29501;DHT22;16450;50.288;10.966;2023-05-02T16:48:10;15.40;96.40
29501;DHT22;16450;50.288;10.966;2023-05-02T16:51:12;15.40;96.50
29501;DHT22;16450;50.288;10.966;2023-05-02T16:54:14;15.30;96.40
29501;DHT22;16450;50.288;10.966;2023-05-02T16:57:16;15.30;96.40
29501;DHT22;16450;50.288;10.966;2023-05-02T17:00:22;15.20;96.20
29501;DHT22;16450;50.288;10.966;2023-05-02T17:03:24;15.20;96.40
29501;DHT22;16450;50.288;10.966;2023-05-02T17:06:26;15.10;96.40
29501;DHT22;16450;50.288;10.966;2023-05-02T17:09:28;15.10;96.30
29501;DHT22;16450;50.288;10.966;2023-05-02T17:12:30;15.00;96.10
29501;DHT22;16450;50.288;10.966;2023-05-02T17:15:35;14.90;95.90
29501;DHT22;16450;50.288;10.966;2023-05-02T17:18:39;14.80;95.10
29501;DHT22;16450;50.288;10.966;2023-05-02T17:21:40;14.70;95.70
29501;DHT22;16450;50.288;10.966;2023-05-02T17:24:42;14.60;95.60
29501;DHT22;16450;50.288;10.966;2023-05-02T17:27:46;14.50;95.40
29501;DHT22;16450;50.288;10.966;2023-05-02T17:30:48;14.40;95.30
29501;DHT22;16450;50.288;10.966;2023-05-02T17:33:55;14.20;95.30
29501;DHT22;16450;50.288;10.966;2023-05-02T17:36:56;14.10;95.60
29501;DHT22;16450;50.288;10.966;2023-05-02T17:39:58;14.00;95.70
29501;DHT22;16450;50.288;10.966;2023-05-02T17:43:02;13.90;95.70
29501;DHT22;16450;50.288;10.966;2023-05-02T17:46:08;13.80;95.80
29501;DHT22;16450;50.288;10.966;2023-05-02T17:49:10;13.70;95.20
29501;DHT22;16450;50.288;10.966;2023-05-02T17:52:12;13.70;95.80
29501;DHT22;16450;50.288;10.966;2023-05-02T17:55:14;13.60;95.70
29501;DHT22;16450;50.288;10.966;2023-05-02T17:58:19;13.50;95.60
29501;DHT22;16450;50.288;10.966;2023-05-02T18:01:21;13.40;95.50
29501;DHT22;16450;50.288;10.966;2023-05-02T18:04:23;13.30;95.40
29501;DHT22;16450;50.288;10.966;2023-05-02T18:07:26;13.20;95.30
29501;DHT22;16450;50.288;10.966;2023-05-02T18:10:36;13.00;95.30
29501;DHT22;16450;50.288;10.966;2023-05-02T18:13:38;12.90;94.80
29501;DHT22;16450;50.288;10.966;2023-05-02T18:16:40;12.80;95.40
29501;DHT22;16450;50.288;10.966;2023-05-02T18:19:47;12.70;95.30
29501;DHT22;16450;50.288;10.966;2023-05-02T18:22:51;12.60;95.40
29501;DHT22;16450;50.288;10.966;2023-05-02T18:25:53;12.50;95.30
29501;DHT22;16450;50.288;10.966;2023-05-02T18:28:54;12.40;95.30
29501;DHT22;16450;50.288;10.966;2023-05-02T18:31:56;12.30;95.40
29501;DHT22;16450;50.288;10.966;2023-05-02T18:34:58;12.20;95.40
29501;DHT22;16450;50.288;10.966;2023-05-02T18:38:04;12.10;95.30
29501;DHT22;16450;50.288;10.966;2023-05-02T18:41:06;12.00;95.20
29501;DHT22;16450;50.288;10.966;2023-05-02T18:44:09;12.00;95.30
29501;DHT22;16450;50.288;10.966;2023-05-02T18:47:12;11.90;95.10
29501;DHT22;16450;50.288;10.966;2023-05-02T18:50:14;11.80;95.20
29501;DHT22;16450;50.288;10.966;2023-05-02T18:53:16;11.70;95.20
29501;DHT22;16450;50.288;10.966;2023-05-02T18:56:20;11.60;95.20
29501;DHT22;16450;50.288;10.966;2023-05-02T18:59:23;11.50;95.30
29501;DHT22;16450;50.288;10.966;2023-05-02T19:02:25;11.30;95.30
29501;DHT22;16450;50.288;10.966;2023-05-02T19:05:27;11.20;95.30
29501;DHT22;16450;50.288;10.966;2023-05-02T19:08:29;11.20;95.30
29501;DHT22;16450;50.288;10.966;2023-05-02T19:11:31;11.10;95.40
29501;DHT22;16450;50.288;10.966;2023-05-02T19:14:33;11.10;95.50
29501;DHT22;16450;50.288;10.966;2023-05-02T19:17:36;11.00;95.50
29501;DHT22;16450;50.288;10.966;2023-05-02T19:20:38;10.90;95.50
29501;DHT22;16450;50.288;10.966;2023-05-02T19:23:41;10.90;95.50
29501;DHT22;16450;50.288;10.966;2023-05-02T19:26:43;10.80;95.60
29501;DHT22;16450;50.288;10.966;2023-05-02T19:29:45;10.80;95.90
29501;DHT22;16450;50.288;10.966;2023-05-02T19:32:48;10.80;95.90
29501;DHT22;16450;50.288;10.966;2023-05-02T19:35:50;10.70;95.60
29501;DHT22;16450;50.288;10.966;2023-05-02T19:38:54;10.60;95.70
29501;DHT22;16450;50.288;10.966;2023-05-02T19:41:58;10.60;95.70
29501;DHT22;16450;50.288;10.966;2023-05-02T19:45:00;10.60;95.70